createdAt,value
2023-01-07T00:02:09.159Z,93.25
2023-01-07T00:04:39.083Z,92.80
2023-01-07T00:07:11.945Z,92.68
2023-01-07T00:09:42.005Z,92.72
2023-01-07T00:12:12.762Z,93.18
2023-01-07T00:14:42.810Z,92.58
2023-01-07T00:17:12.804Z,92.77
2023-01-07T00:19:42.990Z,92.08
2023-01-07T00:22:16.095Z,92.36
2023-01-07T00:24:48.078Z,92.27
2023-01-07T00:27:18.043Z,92.55
2023-01-07T00:29:48.061Z,92.13
2023-01-07T00:32:17.961Z,92.26
2023-01-07T00:34:47.825Z,92.19
2023-01-07T00:37:36.224Z,91.71
2023-01-07T00:40:06.624Z,92.11
2023-01-07T00:42:53.892Z,92.25
2023-01-07T00:45:24.077Z,91.96
2023-01-07T00:50:46.398Z,92.63
2023-01-07T00:53:16.560Z,92.36
2023-01-07T00:55:46.757Z,92.18
2023-01-07T00:58:24.220Z,92.46
2023-01-07T01:00:58.483Z,93.21
2023-01-07T01:03:30.641Z,93.18
2023-01-07T01:06:07.045Z,93.54
2023-01-07T01:08:37.041Z,93.05
2023-01-07T01:11:08.320Z,93.32
2023-01-07T01:13:39.300Z,93.30
2023-01-07T01:16:14.980Z,93.28
2023-01-07T01:18:45.555Z,93.49
2023-01-07T01:21:19.272Z,94.00
2023-01-07T01:23:49.243Z,93.39
2023-01-07T01:26:20.185Z,93.60
2023-01-07T01:28:50.326Z,93.95
2023-01-07T01:31:20.236Z,93.83
2023-01-07T01:33:50.146Z,93.49
2023-01-07T01:36:21.508Z,93.48
2023-01-07T01:38:51.418Z,93.66
2023-01-07T01:41:21.536Z,93.85
2023-01-07T01:43:51.998Z,93.49
2023-01-07T01:46:33.026Z,93.41
2023-01-07T01:49:06.703Z,93.86
2023-01-07T01:51:43.469Z,94.32
2023-01-07T01:54:16.925Z,93.85
2023-01-07T01:56:51.804Z,94.37
2023-01-07T01:59:26.125Z,94.34
2023-01-07T02:01:56.177Z,93.53
2023-01-07T02:04:28.960Z,93.64
2023-01-07T02:07:13.858Z,94.13
2023-01-07T02:09:43.644Z,94.02
2023-01-07T02:12:23.873Z,93.73
2023-01-07T02:15:11.722Z,93.81
2023-01-07T02:18:11.669Z,93.45
2023-01-07T02:21:02.764Z,93.27
2023-01-07T02:24:15.904Z,93.91
2023-01-07T02:27:23.798Z,93.53
2023-01-07T02:30:33.658Z,93.46
2023-01-07T02:33:28.959Z,93.87
2023-01-07T02:36:47.903Z,93.99
2023-01-07T02:39:42.360Z,93.63
2023-01-07T02:42:27.778Z,94.45
2023-01-07T02:45:07.117Z,94.14
2023-01-07T02:47:40.824Z,93.97
2023-01-07T02:50:12.580Z,93.82
2023-01-07T02:52:42.485Z,94.61
2023-01-07T02:55:16.862Z,94.67
2023-01-07T02:58:33.355Z,94.51
2023-01-07T03:01:43.729Z,94.71
2023-01-07T03:04:34.527Z,94.84
2023-01-07T03:07:30.402Z,93.97
2023-01-07T03:10:08.079Z,94.46
2023-01-07T03:12:42.925Z,94.54
2023-01-07T03:15:20.467Z,94.58
2023-01-07T03:17:57.698Z,94.89
2023-01-07T03:20:28.313Z,94.66
2023-01-07T03:23:01.065Z,94.65
2023-01-07T03:25:36.426Z,94.69
2023-01-07T03:28:09.163Z,95.48
2023-01-07T03:30:40.575Z,95.17
2023-01-07T03:33:17.098Z,95.08
2023-01-07T03:35:51.585Z,94.88
2023-01-07T03:38:25.725Z,94.93
2023-01-07T03:40:57.610Z,95.61
2023-01-07T03:43:26.258Z,95.95
2023-01-07T03:45:58.646Z,95.96
2023-01-07T03:51:46.402Z,95.23
2023-01-07T03:54:16.979Z,95.53
2023-01-07T03:56:46.944Z,95.31
2023-01-07T03:59:16.885Z,95.60
2023-01-07T04:01:46.876Z,95.75
2023-01-07T04:04:16.790Z,95.94
2023-01-07T04:06:48.240Z,96.05
2023-01-07T04:09:19.365Z,96.21
2023-01-07T04:11:49.229Z,96.12
2023-01-07T04:14:19.117Z,95.78
2023-01-07T04:16:51.513Z,95.89
2023-01-07T04:19:22.042Z,95.65
2023-01-07T04:21:53.497Z,95.67
2023-01-07T04:24:23.365Z,95.68
2023-01-07T04:26:53.122Z,95.60
2023-01-07T04:29:22.877Z,96.10
2023-01-07T04:31:52.878Z,96.22
2023-01-07T04:34:22.782Z,96.63
2023-01-07T04:36:54.218Z,96.74
2023-01-07T04:39:24.063Z,96.15
2023-01-07T04:41:53.990Z,95.62
2023-01-07T04:44:23.748Z,95.77
2023-01-07T04:46:53.513Z,95.26
2023-01-07T04:49:23.366Z,95.44
2023-01-07T04:51:54.730Z,95.72
2023-01-07T04:54:24.559Z,95.47
2023-01-07T04:56:54.683Z,95.93
2023-01-07T04:59:24.606Z,96.59
2023-01-07T05:01:54.593Z,96.24
2023-01-07T05:04:24.386Z,96.14
2023-01-07T05:06:55.890Z,96.05
2023-01-07T05:09:25.723Z,95.49
2023-01-07T05:11:55.664Z,95.11
2023-01-07T05:14:25.546Z,95.69
2023-01-07T05:16:55.541Z,95.44
2023-01-07T05:19:25.470Z,96.18
2023-01-07T05:21:56.838Z,95.81
2023-01-07T05:24:26.799Z,95.05
2023-01-07T05:26:56.765Z,95.21
2023-01-07T05:29:26.618Z,95.56
2023-01-07T05:31:56.505Z,95.66
2023-01-07T05:34:26.487Z,95.44
2023-01-07T05:36:57.884Z,95.15
2023-01-07T05:39:28.251Z,95.44
2023-01-07T05:41:58.260Z,95.46
2023-01-07T05:44:28.085Z,94.92
2023-01-07T05:46:57.915Z,95.08
2023-01-07T05:49:27.722Z,94.93
2023-01-07T05:51:59.126Z,95.18
2023-01-07T05:54:28.923Z,95.46
2023-01-07T05:56:58.858Z,95.02
2023-01-07T05:59:28.677Z,95.29
2023-01-07T06:01:58.544Z,95.17
2023-01-07T06:04:28.263Z,94.89
2023-01-07T06:06:59.678Z,95.07
2023-01-07T06:09:30.358Z,94.71
2023-01-07T06:12:00.590Z,95.01
2023-01-07T06:14:30.453Z,95.56
2023-01-07T06:17:00.338Z,95.47
2023-01-07T06:19:30.188Z,95.29
2023-01-07T06:22:01.538Z,95.35
2023-01-07T06:24:31.427Z,95.38
2023-01-07T06:27:01.158Z,95.12
2023-01-07T06:29:30.861Z,95.66
2023-01-07T06:32:01.161Z,95.88
2023-01-07T06:34:31.081Z,95.64
2023-01-07T06:37:02.540Z,95.90
2023-01-07T06:39:32.426Z,96.23
2023-01-07T06:42:02.409Z,95.70
2023-01-07T06:44:32.348Z,95.46
2023-01-07T06:47:02.145Z,95.19
2023-01-07T06:51:46.089Z,95.37
2023-01-07T06:54:16.056Z,95.70
2023-01-07T06:56:45.860Z,95.36
2023-01-07T06:59:15.990Z,95.19
2023-01-07T07:01:46.778Z,95.17
2023-01-07T07:04:16.699Z,94.99
2023-01-07T07:06:48.069Z,95.23
2023-01-07T07:09:18.045Z,95.15
2023-01-07T07:11:47.746Z,95.13
2023-01-07T07:14:17.678Z,95.05
2023-01-07T07:16:47.462Z,94.99
2023-01-07T07:19:17.287Z,95.24
2023-01-07T07:21:49.916Z,95.74
2023-01-07T07:24:19.924Z,95.47
2023-01-07T07:26:49.889Z,95.51
2023-01-07T07:29:21.736Z,95.97
2023-01-07T07:31:51.719Z,96.22
2023-01-07T07:34:21.688Z,96.33
2023-01-07T07:36:53.052Z,96.13
2023-01-07T07:39:22.964Z,96.45
2023-01-07T07:41:53.459Z,96.34
2023-01-07T07:44:23.481Z,96.14
2023-01-07T07:46:53.435Z,95.73
2023-01-07T07:49:23.258Z,95.72
2023-01-07T07:51:54.566Z,95.93
2023-01-07T07:54:24.597Z,96.37
2023-01-07T07:56:54.489Z,95.97
2023-01-07T07:59:27.492Z,95.67
2023-01-07T08:01:57.558Z,95.89
2023-01-07T08:04:29.166Z,95.90
2023-01-07T08:07:00.718Z,95.86
2023-01-07T08:09:30.605Z,95.71
2023-01-07T08:12:00.497Z,94.92
2023-01-07T08:14:30.442Z,94.31
2023-01-07T08:17:00.306Z,93.14
2023-01-07T08:19:30.188Z,91.19
2023-01-07T08:22:01.625Z,89.25
2023-01-07T08:24:31.399Z,86.84
2023-01-07T08:27:01.251Z,84.19
2023-01-07T08:29:31.146Z,83.15
2023-01-07T08:32:01.044Z,81.97
2023-01-07T08:34:30.997Z,80.81
2023-01-07T08:37:02.279Z,80.01
2023-01-07T08:39:32.281Z,78.54
2023-01-07T08:42:02.137Z,77.40
2023-01-07T08:44:32.824Z,76.46
2023-01-07T08:47:02.999Z,76.40
2023-01-07T08:49:33.362Z,75.95
2023-01-07T08:52:04.639Z,75.83
2023-01-07T08:54:34.466Z,75.08
2023-01-07T08:57:04.404Z,74.59
2023-01-07T08:59:34.326Z,74.64
2023-01-07T09:02:04.216Z,73.78
2023-01-07T09:04:34.324Z,74.20
2023-01-07T09:07:05.537Z,75.27
2023-01-07T09:09:35.337Z,75.06
2023-01-07T09:12:05.400Z,74.67
2023-01-07T09:14:35.224Z,74.19
2023-01-07T09:17:05.054Z,73.90
2023-01-07T09:19:35.059Z,73.60
2023-01-07T09:22:06.305Z,74.19
2023-01-07T09:24:36.260Z,75.38
2023-01-07T09:27:06.442Z,76.00
2023-01-07T09:29:37.104Z,76.37
2023-01-07T09:32:06.957Z,76.61
2023-01-07T09:34:38.220Z,76.37
2023-01-07T09:37:09.768Z,75.02
2023-01-07T09:39:39.890Z,74.41
2023-01-07T09:42:22.511Z,74.39
2023-01-07T09:45:07.105Z,74.36
2023-01-07T09:47:39.106Z,74.55
2023-01-07T09:51:50.164Z,74.27
2023-01-07T09:54:29.258Z,73.73
2023-01-07T09:56:59.203Z,73.56
2023-01-07T09:59:29.128Z,73.35
2023-01-07T10:02:09.564Z,73.54
2023-01-07T10:04:50.019Z,73.32
2023-01-07T10:07:34.304Z,73.95
2023-01-07T10:10:17.140Z,73.78
2023-01-07T10:13:00.101Z,74.06
2023-01-07T10:15:46.580Z,74.17
2023-01-07T10:18:33.559Z,74.49
2023-01-07T10:21:17.285Z,74.70
2023-01-07T10:23:54.159Z,74.39
2023-01-07T10:26:34.049Z,74.25
2023-01-07T10:29:11.583Z,74.22
2023-01-07T10:31:42.178Z,74.88
2023-01-07T10:34:18.899Z,74.35
2023-01-07T10:37:03.029Z,74.60
2023-01-07T10:39:47.580Z,74.67
2023-01-07T10:42:27.185Z,74.67
2023-01-07T10:45:53.944Z,74.26
2023-01-07T10:48:45.066Z,74.50
2023-01-07T10:51:41.404Z,74.57
2023-01-07T10:54:30.403Z,74.41
2023-01-07T10:57:11.358Z,74.26
2023-01-07T10:59:41.665Z,74.48
2023-01-07T11:02:19.969Z,74.79
2023-01-07T11:04:50.166Z,74.54
2023-01-07T11:07:32.029Z,74.61
2023-01-07T11:10:05.689Z,74.51
2023-01-07T11:12:43.481Z,74.05
2023-01-07T11:15:22.460Z,74.79
2023-01-07T11:17:56.370Z,74.67
2023-01-07T11:20:51.740Z,74.93
2023-01-07T11:23:44.274Z,74.04
2023-01-07T11:26:19.123Z,74.66
2023-01-07T11:28:56.563Z,74.36
2023-01-07T11:31:47.836Z,74.79
2023-01-07T11:34:27.632Z,74.69
2023-01-07T11:36:57.853Z,74.43
2023-01-07T11:39:31.023Z,74.81
2023-01-07T11:42:24.545Z,75.17
2023-01-07T11:45:16.152Z,75.00
2023-01-07T11:47:54.146Z,75.04
2023-01-07T11:50:31.402Z,75.07
2023-01-07T11:53:04.565Z,75.06
2023-01-07T11:55:34.528Z,74.95
2023-01-07T11:58:29.589Z,74.96
2023-01-07T12:01:18.779Z,75.31
2023-01-07T12:04:14.615Z,75.41
2023-01-07T12:06:49.347Z,75.36
2023-01-07T12:09:29.685Z,75.28
2023-01-07T12:12:02.851Z,75.08
2023-01-07T12:14:35.474Z,75.34
2023-01-07T12:17:15.720Z,75.52
2023-01-07T12:20:11.963Z,75.36
2023-01-07T12:22:58.540Z,75.32
2023-01-07T12:25:45.919Z,74.70
2023-01-07T12:28:19.444Z,74.77
2023-01-07T12:31:27.766Z,74.90
2023-01-07T12:34:09.790Z,74.72
2023-01-07T12:36:47.984Z,74.89
2023-01-07T12:39:27.905Z,74.81
2023-01-07T12:42:06.201Z,75.21
2023-01-07T12:44:41.334Z,74.79
2023-01-07T12:47:30.690Z,75.57
2023-01-07T12:51:55.626Z,74.62
2023-01-07T12:54:46.630Z,74.54
2023-01-07T12:57:23.826Z,74.10
2023-01-07T13:00:05.388Z,74.18
2023-01-07T13:02:45.510Z,74.82
2023-01-07T13:05:19.636Z,74.88
2023-01-07T13:08:05.099Z,75.30
2023-01-07T13:10:42.448Z,75.90
2023-01-07T13:13:22.739Z,75.80
2023-01-07T13:15:52.575Z,75.55
2023-01-07T13:18:24.016Z,75.81
2023-01-07T13:21:08.096Z,76.10
2023-01-07T13:24:08.917Z,76.38
2023-01-07T13:26:51.343Z,76.74
2023-01-07T13:29:59.641Z,76.44
2023-01-07T13:32:55.860Z,76.58
2023-01-07T13:36:11.995Z,77.28
2023-01-07T13:39:12.096Z,77.20
2023-01-07T13:42:03.403Z,77.08
2023-01-07T13:45:00.275Z,77.36
2023-01-07T13:47:44.075Z,76.83
2023-01-07T13:50:27.583Z,76.38
2023-01-07T13:53:06.227Z,76.71
2023-01-07T13:55:46.415Z,76.38
2023-01-07T13:58:46.336Z,76.62
2023-01-07T14:01:18.963Z,76.48
2023-01-07T14:03:51.245Z,76.96
2023-01-07T14:06:44.415Z,76.96
2023-01-07T14:09:37.342Z,76.88
2023-01-07T14:13:08.371Z,77.36
2023-01-07T14:16:11.248Z,77.45
2023-01-07T14:19:12.637Z,77.60
2023-01-07T14:22:06.986Z,77.72
2023-01-07T14:25:09.491Z,77.93
2023-01-07T14:28:01.231Z,78.10
2023-01-07T14:30:37.046Z,78.61
2023-01-07T14:33:08.907Z,78.56
2023-01-07T14:35:42.154Z,78.73
2023-01-07T14:38:59.797Z,79.25
2023-01-07T14:41:29.612Z,79.58
2023-01-07T14:44:30.804Z,80.36
2023-01-07T14:47:00.817Z,80.99
2023-01-07T14:49:59.069Z,81.06
2023-01-07T14:53:18.232Z,82.17
2023-01-07T14:56:28.350Z,81.94
2023-01-07T14:59:23.239Z,81.87
2023-01-07T15:02:33.204Z,82.03
2023-01-07T15:06:02.528Z,82.21
2023-01-07T15:09:04.843Z,83.26
2023-01-07T15:11:53.981Z,83.30
2023-01-07T15:14:49.079Z,83.78
2023-01-07T15:17:19.826Z,83.93
2023-01-07T15:19:50.029Z,84.14
2023-01-07T15:22:50.748Z,84.27
2023-01-07T15:25:36.639Z,84.28
2023-01-07T15:28:17.403Z,84.51
2023-01-07T15:31:01.431Z,85.66
2023-01-07T15:34:08.094Z,85.13
2023-01-07T15:36:44.306Z,84.89
2023-01-07T15:39:23.738Z,84.70
2023-01-07T15:41:56.200Z,84.72
2023-01-07T15:44:29.684Z,85.38
2023-01-07T15:47:01.198Z,85.96
2023-01-07T15:51:48.223Z,87.16
2023-01-07T15:54:36.027Z,87.30
2023-01-07T15:57:11.185Z,87.55
2023-01-07T15:59:46.554Z,87.68
2023-01-07T16:02:25.048Z,87.17
2023-01-07T16:04:57.763Z,87.46
2023-01-07T16:07:33.807Z,87.85
2023-01-07T16:10:04.249Z,87.92
2023-01-07T16:12:38.688Z,88.30
2023-01-07T16:15:33.167Z,88.17
2023-01-07T16:18:05.280Z,88.20
2023-01-07T16:20:39.146Z,87.99
2023-01-07T16:23:22.983Z,88.97
2023-01-07T16:25:58.805Z,88.60
2023-01-07T16:28:33.348Z,88.68
2023-01-07T16:31:07.395Z,89.47
2023-01-07T16:33:38.077Z,88.81
2023-01-07T16:36:15.606Z,88.88
2023-01-07T16:38:48.466Z,89.29
2023-01-07T16:41:23.482Z,88.90
2023-01-07T16:43:55.642Z,89.70
2023-01-07T16:46:28.859Z,89.64
2023-01-07T16:49:32.575Z,89.06
2023-01-07T16:52:14.452Z,89.90
2023-01-07T16:54:46.786Z,90.57
2023-01-07T16:57:34.590Z,89.99
2023-01-07T17:00:07.836Z,90.01
2023-01-07T17:02:43.960Z,89.75
2023-01-07T17:05:19.345Z,89.89
2023-01-07T17:07:51.855Z,89.94
2023-01-07T17:10:28.859Z,90.41
2023-01-07T17:13:02.083Z,90.22
2023-01-07T17:15:39.675Z,90.42
2023-01-07T17:18:31.419Z,90.38
2023-01-07T17:21:03.097Z,90.37
2023-01-07T17:23:45.981Z,91.36
2023-01-07T17:26:24.422Z,90.72
2023-01-07T17:28:57.263Z,91.38
2023-01-07T17:31:27.073Z,91.24
2023-01-07T17:33:58.031Z,91.05
2023-01-07T17:36:29.459Z,91.11
2023-01-07T17:38:59.406Z,91.16
2023-01-07T17:41:48.286Z,91.37
2023-01-07T17:44:18.301Z,91.75
2023-01-07T17:46:48.178Z,91.73
2023-01-07T17:49:19.161Z,91.32
2023-01-07T17:51:52.661Z,91.17
2023-01-07T17:54:26.623Z,90.92
2023-01-07T17:56:57.930Z,91.23
2023-01-07T17:59:30.808Z,91.27
2023-01-07T18:02:00.964Z,90.96
2023-01-07T18:04:32.968Z,91.38
2023-01-07T18:07:02.750Z,91.27
2023-01-07T18:09:34.372Z,91.98
2023-01-07T18:12:22.927Z,91.90
2023-01-07T18:14:54.657Z,92.04
2023-01-07T18:17:25.284Z,91.92
2023-01-07T18:19:55.653Z,92.48
2023-01-07T18:22:26.838Z,91.97
2023-01-07T18:24:56.785Z,92.17
2023-01-07T18:27:27.959Z,92.69
2023-01-07T18:29:58.479Z,92.45
2023-01-07T18:32:28.407Z,92.40
2023-01-07T18:34:58.284Z,92.46
2023-01-07T18:37:28.227Z,92.66
2023-01-07T18:40:02.492Z,92.74
2023-01-07T18:42:34.957Z,92.46
2023-01-07T18:45:05.970Z,92.44
2023-01-07T18:47:36.085Z,92.97
2023-01-07T18:51:48.391Z,93.24
2023-01-07T18:54:18.525Z,93.27
2023-01-07T18:56:48.410Z,93.21
2023-01-07T18:59:18.244Z,93.32
2023-01-07T19:01:48.184Z,93.35
2023-01-07T19:04:18.130Z,93.21
2023-01-07T19:06:49.549Z,93.49
2023-01-07T19:09:19.445Z,93.24
2023-01-07T19:11:49.824Z,93.49
2023-01-07T19:14:19.764Z,93.93
2023-01-07T19:16:51.082Z,94.34
2023-01-07T19:19:21.072Z,93.97
2023-01-07T19:21:52.794Z,93.78
2023-01-07T19:24:23.909Z,93.90
2023-01-07T19:26:53.902Z,94.09
2023-01-07T19:29:23.775Z,94.49
2023-01-07T19:31:53.604Z,93.83
2023-01-07T19:34:23.578Z,94.26
2023-01-07T19:36:54.955Z,94.54
2023-01-07T19:39:26.301Z,94.85
2023-01-07T19:41:56.144Z,94.83
2023-01-07T19:44:26.069Z,95.24
2023-01-07T19:46:55.846Z,95.41
2023-01-07T19:49:25.632Z,94.87
2023-01-07T19:51:57.069Z,94.81
2023-01-07T19:54:26.947Z,95.09
2023-01-07T19:56:56.913Z,94.92
2023-01-07T19:59:27.746Z,94.43
2023-01-07T20:01:57.696Z,94.31
2023-01-07T20:04:27.787Z,94.39
2023-01-07T20:06:59.148Z,94.36
2023-01-07T20:09:28.963Z,94.74
2023-01-07T20:11:58.771Z,94.73
2023-01-07T20:14:28.678Z,94.69
2023-01-07T20:16:58.611Z,94.54
2023-01-07T20:19:30.118Z,94.56
2023-01-07T20:22:01.467Z,94.52
2023-01-07T20:24:33.210Z,94.65
2023-01-07T20:27:03.117Z,94.60
2023-01-07T20:29:33.106Z,94.85
2023-01-07T20:32:07.688Z,94.98
2023-01-07T20:34:37.497Z,94.75
2023-01-07T20:37:08.765Z,94.63
2023-01-07T20:39:38.600Z,94.93
2023-01-07T20:42:08.757Z,95.19
2023-01-07T20:44:39.816Z,94.64
2023-01-07T20:47:09.697Z,94.81
2023-01-07T20:49:39.610Z,94.54
2023-01-07T20:52:11.007Z,94.76
2023-01-07T20:54:40.789Z,95.23
2023-01-07T20:57:10.884Z,95.20
2023-01-07T20:59:40.767Z,95.19
2023-01-07T21:02:17.787Z,95.40
2023-01-07T21:04:47.758Z,94.75
2023-01-07T21:07:19.199Z,94.94
2023-01-07T21:09:50.077Z,94.85
2023-01-07T21:12:20.077Z,95.19
2023-01-07T21:14:49.774Z,94.41
2023-01-07T21:17:19.617Z,95.05
2023-01-07T21:19:49.521Z,95.06
2023-01-07T21:22:20.845Z,94.62
2023-01-07T21:24:50.666Z,95.04
2023-01-07T21:27:20.676Z,94.92
2023-01-07T21:29:51.464Z,95.25
2023-01-07T21:32:21.378Z,95.44
2023-01-07T21:34:51.227Z,95.15
2023-01-07T21:37:22.526Z,95.39
2023-01-07T21:39:52.698Z,95.52
2023-01-07T21:42:22.696Z,95.36
2023-01-07T21:44:52.640Z,95.40
2023-01-07T21:47:22.497Z,95.86
2023-01-07T21:51:45.512Z,95.36
2023-01-07T21:54:15.316Z,95.20
2023-01-07T21:56:45.115Z,95.74
2023-01-07T21:59:15.082Z,95.57
2023-01-07T22:01:45.007Z,95.57
2023-01-07T22:04:15.063Z,95.42
2023-01-07T22:06:46.457Z,95.77
2023-01-07T22:09:18.618Z,95.83
2023-01-07T22:11:48.598Z,96.10
2023-01-07T22:14:20.403Z,95.76
2023-01-07T22:16:50.365Z,95.46
2023-01-07T22:19:20.439Z,95.43
2023-01-07T22:21:51.747Z,95.43
2023-01-07T22:24:21.855Z,95.22
2023-01-07T22:26:53.016Z,95.68
2023-01-07T22:29:23.044Z,96.15
2023-01-07T22:31:54.294Z,96.19
2023-01-07T22:34:24.205Z,95.60
2023-01-07T22:36:59.928Z,95.71
2023-01-07T22:39:34.954Z,95.96
2023-01-07T22:42:10.319Z,95.87
2023-01-07T22:44:45.240Z,95.25
2023-01-07T22:47:18.956Z,95.70
2023-01-07T22:49:50.431Z,95.31
2023-01-07T22:52:21.982Z,95.87
2023-01-07T22:54:51.896Z,95.38
2023-01-07T22:57:22.645Z,95.54
2023-01-07T22:59:52.578Z,95.26
2023-01-07T23:02:22.497Z,96.11
2023-01-07T23:04:52.434Z,95.83
2023-01-07T23:07:23.879Z,95.61
2023-01-07T23:09:53.867Z,96.11
2023-01-07T23:12:23.678Z,96.22
2023-01-07T23:14:53.502Z,95.82
2023-01-07T23:17:23.321Z,95.39
2023-01-07T23:19:53.294Z,94.99
2023-01-07T23:22:24.681Z,95.75
2023-01-07T23:24:54.591Z,95.44
2023-01-07T23:27:24.433Z,95.37
2023-01-07T23:29:55.690Z,96.11
2023-01-07T23:32:25.647Z,95.69
2023-01-07T23:34:55.621Z,95.42
2023-01-07T23:37:27.247Z,95.49
2023-01-07T23:39:57.224Z,95.77
2023-01-07T23:42:27.067Z,95.21
2023-01-07T23:44:57.399Z,95.18
2023-01-07T23:47:27.238Z,95.22
2023-01-07T23:49:57.061Z,95.68
2023-01-07T23:52:28.419Z,95.14
2023-01-07T23:54:58.311Z,95.51
2023-01-07T23:57:29.121Z,95.53
2023-01-07T23:59:58.897Z,95.45
